createdAt,value
2022-12-06T00:01:38.723Z,6.40
2022-12-06T00:04:08.236Z,6.40
2022-12-06T00:06:39.796Z,6.40
2022-12-06T00:09:07.751Z,6.40
2022-12-06T00:11:36.022Z,6.40
2022-12-06T00:14:06.203Z,6.40
2022-12-06T00:16:34.543Z,6.40
2022-12-06T00:19:01.570Z,6.40
2022-12-06T00:21:33.865Z,6.40
2022-12-06T00:24:06.662Z,6.50
2022-12-06T00:26:38.128Z,6.40
2022-12-06T00:29:05.787Z,6.50
2022-12-06T00:31:33.037Z,6.50
2022-12-06T00:34:00.106Z,6.50
2022-12-06T00:36:30.216Z,6.50
2022-12-06T00:39:00.333Z,6.50
2022-12-06T00:41:27.348Z,6.50
2022-12-06T00:43:55.750Z,6.50
2022-12-06T00:46:30.783Z,6.50
2022-12-06T00:48:59.955Z,6.50
2022-12-06T00:51:29.222Z,6.50
2022-12-06T00:53:56.132Z,6.50
2022-12-06T00:56:23.415Z,6.50
2022-12-06T00:58:50.305Z,6.50
2022-12-06T01:01:24.261Z,6.50
2022-12-06T01:03:53.449Z,6.60
2022-12-06T01:06:26.109Z,6.50
2022-12-06T01:08:54.947Z,6.50
2022-12-06T01:11:22.650Z,6.50
2022-12-06T01:13:50.828Z,6.50
2022-12-06T01:16:21.587Z,6.60
2022-12-06T01:18:53.106Z,6.50
2022-12-06T01:21:20.883Z,6.60
2022-12-06T01:23:50.809Z,6.60
2022-12-06T01:26:26.835Z,6.60
2022-12-06T01:28:53.749Z,6.60
2022-12-06T01:31:21.480Z,6.60
2022-12-06T01:33:48.258Z,6.60
2022-12-06T01:36:23.217Z,6.60
2022-12-06T01:38:51.885Z,6.60
2022-12-06T01:41:20.475Z,6.60
2022-12-06T01:43:50.143Z,6.60
2022-12-06T01:46:22.592Z,6.60
2022-12-06T01:48:56.425Z,6.60
2022-12-06T01:51:23.820Z,6.60
2022-12-06T01:53:53.852Z,6.60
2022-12-06T01:56:21.496Z,6.60
2022-12-06T01:58:54.751Z,6.60
2022-12-06T02:01:23.848Z,6.60
2022-12-06T02:03:51.249Z,6.60
2022-12-06T02:06:18.226Z,6.70
2022-12-06T02:08:46.315Z,6.70
2022-12-06T02:11:14.737Z,6.70
2022-12-06T02:13:44.409Z,6.60
2022-12-06T02:16:38.185Z,6.70
2022-12-06T02:19:48.580Z,6.70
2022-12-06T02:22:30.843Z,6.70
2022-12-06T02:25:43.445Z,6.70
2022-12-06T02:28:32.250Z,6.70
2022-12-06T02:31:09.826Z,6.70
2022-12-06T02:33:59.172Z,6.70
2022-12-06T02:36:41.679Z,6.70
2022-12-06T02:39:12.778Z,6.70
2022-12-06T02:41:46.436Z,6.70
2022-12-06T02:44:21.604Z,6.70
2022-12-06T02:46:50.963Z,6.70
2022-12-06T02:49:18.624Z,6.70
2022-12-06T02:51:47.620Z,6.70
2022-12-06T02:54:14.628Z,6.70
2022-12-06T02:56:42.596Z,6.70
2022-12-06T02:59:12.259Z,6.70
2022-12-06T03:01:55.270Z,6.70
2022-12-06T03:04:51.837Z,6.70
2022-12-06T03:07:32.019Z,6.70
2022-12-06T03:10:04.943Z,6.80
2022-12-06T03:12:58.245Z,6.70
2022-12-06T03:15:40.583Z,6.70
2022-12-06T03:18:22.789Z,6.80
2022-12-06T03:20:58.292Z,6.80
2022-12-06T03:23:30.995Z,6.80
2022-12-06T03:26:00.767Z,6.80
2022-12-06T03:28:30.054Z,6.80
2022-12-06T03:31:03.241Z,6.80
2022-12-06T03:33:32.938Z,6.80
2022-12-06T03:36:00.325Z,6.80
2022-12-06T03:38:54.333Z,6.70
2022-12-06T03:41:25.820Z,6.80
2022-12-06T03:43:53.288Z,6.80
2022-12-06T03:46:35.389Z,6.80
2022-12-06T03:49:07.488Z,6.80
2022-12-06T03:51:37.290Z,6.80
2022-12-06T03:54:06.823Z,6.80
2022-12-06T03:56:36.843Z,6.80
2022-12-06T03:59:05.339Z,6.80
2022-12-06T04:01:34.987Z,6.80
2022-12-06T04:04:01.932Z,6.80
2022-12-06T04:06:28.930Z,6.80
2022-12-06T04:09:15.731Z,6.80
2022-12-06T04:11:42.604Z,6.80
2022-12-06T04:14:09.861Z,6.80
2022-12-06T04:16:55.307Z,6.80
2022-12-06T04:19:22.068Z,6.80
2022-12-06T04:22:07.678Z,6.80
2022-12-06T04:24:34.467Z,6.80
2022-12-06T04:27:19.724Z,6.80
2022-12-06T04:30:05.077Z,6.80
2022-12-06T04:32:53.187Z,6.90
2022-12-06T04:35:38.991Z,6.90
2022-12-06T04:38:24.369Z,6.90
2022-12-06T04:40:51.132Z,6.90
2022-12-06T04:43:38.494Z,6.90
2022-12-06T04:46:05.439Z,6.90
2022-12-06T04:48:34.460Z,6.90
2022-12-06T04:51:01.176Z,6.90
2022-12-06T04:53:29.676Z,6.90
2022-12-06T04:55:57.444Z,6.90
2022-12-06T04:58:24.263Z,6.90
2022-12-06T05:00:54.599Z,6.90
2022-12-06T05:03:21.807Z,6.90
2022-12-06T05:05:48.625Z,6.90
2022-12-06T05:08:15.481Z,7.00
2022-12-06T05:10:46.206Z,7.00
2022-12-06T05:13:12.924Z,7.00
2022-12-06T05:15:39.645Z,6.90
2022-12-06T05:18:06.411Z,7.00
2022-12-06T05:20:33.272Z,6.90
2022-12-06T05:23:01.602Z,6.90
2022-12-06T05:25:28.518Z,6.90
2022-12-06T05:27:56.651Z,6.90
2022-12-06T05:30:23.339Z,6.90
2022-12-06T05:32:55.390Z,6.90
2022-12-06T05:35:24.554Z,6.90
2022-12-06T05:37:54.024Z,6.90
2022-12-06T05:40:20.749Z,6.90
2022-12-06T05:42:47.417Z,6.90
2022-12-06T05:45:14.230Z,6.90
2022-12-06T05:47:41.220Z,6.90
2022-12-06T05:50:08.860Z,6.90
2022-12-06T05:52:35.880Z,7.00
2022-12-06T05:55:02.754Z,7.00
2022-12-06T05:57:29.509Z,7.00
2022-12-06T05:59:56.269Z,7.00
2022-12-06T06:02:25.137Z,7.00
2022-12-06T06:04:53.183Z,7.00
2022-12-06T06:07:20.625Z,7.00
2022-12-06T06:09:48.546Z,7.00
2022-12-06T06:12:15.239Z,7.00
2022-12-06T06:14:42.707Z,7.00
2022-12-06T06:17:09.683Z,7.00
2022-12-06T06:19:36.595Z,7.00
2022-12-06T06:22:03.622Z,7.00
2022-12-06T06:24:38.940Z,7.00
2022-12-06T06:27:06.073Z,7.00
2022-12-06T06:29:32.949Z,7.10
2022-12-06T06:31:59.849Z,7.10
2022-12-06T06:34:26.977Z,7.10
2022-12-06T06:36:53.736Z,7.10
2022-12-06T06:39:20.571Z,7.00
2022-12-06T06:41:47.949Z,7.10
2022-12-06T06:44:14.872Z,7.10
2022-12-06T06:46:41.613Z,7.10
2022-12-06T06:49:08.472Z,7.10
2022-12-06T06:51:36.523Z,7.10
2022-12-06T06:54:04.403Z,7.10
2022-12-06T06:56:31.105Z,7.10
2022-12-06T06:58:58.048Z,7.10
2022-12-06T07:01:25.591Z,7.10
2022-12-06T07:03:52.470Z,7.10
2022-12-06T07:06:20.176Z,7.10
2022-12-06T07:08:49.019Z,7.10
2022-12-06T07:11:18.840Z,7.10
2022-12-06T07:13:49.690Z,7.10
2022-12-06T07:16:19.192Z,7.10
2022-12-06T07:18:47.646Z,7.10
2022-12-06T07:21:15.981Z,7.20
2022-12-06T07:23:43.327Z,7.10
2022-12-06T07:26:19.347Z,7.20
2022-12-06T07:28:47.715Z,7.10
2022-12-06T07:31:20.819Z,7.20
2022-12-06T07:33:48.176Z,7.10
2022-12-06T07:36:15.944Z,7.10
2022-12-06T07:38:47.693Z,7.10
2022-12-06T07:41:36.639Z,7.10
2022-12-06T07:44:23.091Z,7.10
2022-12-06T07:46:49.869Z,7.10
2022-12-06T07:49:18.479Z,7.20
2022-12-06T07:51:45.929Z,7.20
2022-12-06T07:54:13.679Z,7.20
2022-12-06T07:56:41.366Z,7.20
2022-12-06T07:59:08.288Z,7.20
2022-12-06T08:01:35.489Z,7.20
2022-12-06T08:04:04.667Z,7.20
2022-12-06T08:06:32.851Z,7.20
2022-12-06T08:09:00.101Z,7.30
2022-12-06T08:11:26.962Z,7.30
2022-12-06T08:13:53.778Z,7.30
2022-12-06T08:16:20.505Z,7.30
2022-12-06T08:18:47.277Z,7.30
2022-12-06T08:21:14.275Z,7.30
2022-12-06T08:23:41.005Z,7.30
2022-12-06T08:26:17.121Z,7.30
2022-12-06T08:28:45.531Z,7.30
2022-12-06T08:31:19.117Z,7.30
2022-12-06T08:33:47.515Z,7.30
2022-12-06T08:36:18.181Z,7.30
2022-12-06T08:38:46.300Z,7.40
2022-12-06T08:41:32.862Z,7.30
2022-12-06T08:44:01.868Z,7.30
2022-12-06T08:46:30.085Z,7.30
2022-12-06T08:48:57.013Z,7.30
2022-12-06T08:51:24.060Z,7.30
2022-12-06T08:53:53.033Z,7.30
2022-12-06T08:56:20.247Z,7.40
2022-12-06T08:58:47.222Z,7.40
2022-12-06T09:01:20.979Z,7.40
2022-12-06T09:03:48.106Z,7.40
2022-12-06T09:06:15.591Z,7.40
2022-12-06T09:08:42.415Z,7.40
2022-12-06T09:11:09.644Z,7.40
2022-12-06T09:13:37.847Z,7.40
2022-12-06T09:16:10.734Z,7.40
2022-12-06T09:18:38.067Z,7.40
2022-12-06T09:21:13.169Z,7.40
2022-12-06T09:23:40.268Z,7.40
2022-12-06T09:26:07.499Z,7.50
2022-12-06T09:28:36.460Z,7.50
2022-12-06T09:31:05.387Z,7.50
2022-12-06T09:33:32.633Z,7.50
2022-12-06T09:36:15.166Z,7.50
2022-12-06T09:38:44.009Z,7.50
2022-12-06T09:41:34.724Z,7.50
2022-12-06T09:44:13.774Z,7.50
2022-12-06T09:46:59.426Z,7.50
2022-12-06T09:49:48.029Z,7.50
2022-12-06T09:52:26.644Z,7.50
2022-12-06T09:55:22.263Z,7.50
2022-12-06T09:57:51.766Z,7.50
2022-12-06T10:00:23.116Z,7.60
2022-12-06T10:02:53.123Z,7.60
2022-12-06T10:05:33.581Z,7.60
2022-12-06T10:08:03.558Z,7.60
2022-12-06T10:11:08.503Z,7.60
2022-12-06T10:14:00.595Z,7.60
2022-12-06T10:16:58.184Z,7.60
2022-12-06T10:20:05.431Z,7.60
2022-12-06T10:22:47.046Z,7.60
2022-12-06T10:25:23.683Z,7.60
2022-12-06T10:28:18.402Z,7.60
2022-12-06T10:30:56.200Z,7.60
2022-12-06T10:33:45.088Z,7.60
2022-12-06T10:36:16.254Z,7.60
2022-12-06T10:38:53.163Z,7.50
2022-12-06T10:41:26.859Z,7.50
2022-12-06T10:44:06.074Z,7.50
2022-12-06T10:47:00.777Z,7.60
2022-12-06T10:49:39.359Z,7.60
2022-12-06T10:52:32.467Z,7.60
2022-12-06T10:55:04.879Z,7.80
2022-12-06T10:58:06.773Z,7.90
2022-12-06T11:00:47.076Z,8.00
2022-12-06T11:03:56.570Z,7.90
2022-12-06T11:06:32.363Z,7.90
2022-12-06T11:09:14.406Z,7.90
2022-12-06T11:11:44.014Z,7.90
2022-12-06T11:14:24.110Z,7.90
2022-12-06T11:17:05.174Z,7.90
2022-12-06T11:19:38.617Z,7.90
2022-12-06T11:22:17.227Z,8.10
2022-12-06T11:25:02.478Z,8.20
2022-12-06T11:27:42.463Z,8.20
2022-12-06T11:30:20.452Z,8.20
2022-12-06T11:32:49.825Z,8.20
2022-12-06T11:35:23.148Z,8.10
2022-12-06T11:37:57.530Z,8.10
2022-12-06T11:40:33.364Z,8.10
2022-12-06T11:43:06.156Z,8.10
2022-12-06T11:45:35.997Z,8.10
2022-12-06T11:48:14.323Z,8.10
2022-12-06T11:50:42.368Z,8.10
2022-12-06T11:53:20.335Z,8.00
2022-12-06T11:55:52.551Z,8.00
2022-12-06T11:58:58.330Z,8.00
2022-12-06T12:01:39.395Z,8.10
2022-12-06T12:04:26.222Z,8.00
2022-12-06T12:07:15.296Z,8.00
2022-12-06T12:10:01.599Z,8.00
2022-12-06T12:12:59.344Z,8.10
2022-12-06T12:15:29.107Z,8.20
2022-12-06T12:17:58.723Z,8.20
2022-12-06T12:20:36.230Z,8.20
2022-12-06T12:23:25.867Z,8.10
2022-12-06T12:26:13.275Z,8.10
2022-12-06T12:28:41.505Z,8.10
2022-12-06T12:31:19.632Z,8.10
2022-12-06T12:33:47.074Z,8.10
2022-12-06T12:36:24.406Z,8.10
2022-12-06T12:39:02.768Z,8.10
2022-12-06T12:41:32.243Z,8.20
2022-12-06T12:44:36.400Z,8.20
2022-12-06T12:47:03.384Z,8.30
2022-12-06T12:49:35.949Z,8.30
2022-12-06T12:52:24.756Z,8.30
2022-12-06T12:55:15.705Z,8.30
2022-12-06T12:57:46.373Z,8.30
2022-12-06T13:00:25.745Z,8.40
2022-12-06T13:03:18.090Z,8.40
2022-12-06T13:05:54.549Z,8.30
2022-12-06T13:08:36.902Z,8.30
2022-12-06T13:11:05.537Z,8.30
2022-12-06T13:13:45.153Z,8.30
2022-12-06T13:16:22.441Z,8.30
2022-12-06T13:18:55.297Z,8.30
2022-12-06T13:21:32.012Z,8.40
2022-12-06T13:24:12.886Z,8.40
2022-12-06T13:26:47.969Z,8.40
2022-12-06T13:29:29.052Z,8.40
2022-12-06T13:32:00.494Z,8.40
2022-12-06T13:34:40.101Z,8.40
2022-12-06T13:37:34.592Z,8.40
2022-12-06T13:40:02.756Z,8.40
2022-12-06T13:42:41.964Z,8.40
2022-12-06T13:45:36.624Z,8.40
2022-12-06T13:48:03.451Z,8.40
2022-12-06T13:50:33.140Z,8.40
2022-12-06T13:53:01.131Z,8.50
2022-12-06T13:55:28.544Z,8.40
2022-12-06T13:57:55.755Z,8.50
2022-12-06T14:00:31.210Z,8.40
2022-12-06T14:03:05.660Z,8.50
2022-12-06T14:06:08.971Z,8.50
2022-12-06T14:08:57.189Z,8.50
2022-12-06T14:11:29.254Z,8.50
2022-12-06T14:13:58.401Z,8.50
2022-12-06T14:16:50.382Z,8.50
2022-12-06T14:19:32.407Z,8.50
2022-12-06T14:22:14.871Z,8.50
2022-12-06T14:25:02.922Z,8.40
2022-12-06T14:27:34.375Z,8.50
2022-12-06T14:30:09.662Z,8.40
2022-12-06T14:32:48.885Z,8.50
2022-12-06T14:35:19.083Z,8.50
2022-12-06T14:37:57.140Z,8.60
2022-12-06T14:40:50.625Z,8.50
2022-12-06T14:43:19.280Z,8.60
2022-12-06T14:45:47.784Z,8.50
2022-12-06T14:48:15.025Z,8.50
2022-12-06T14:50:57.076Z,8.50
2022-12-06T14:53:32.918Z,8.50
2022-12-06T14:56:22.757Z,8.50
2022-12-06T14:58:49.677Z,8.50
2022-12-06T15:01:22.282Z,8.50
2022-12-06T15:04:06.648Z,8.50
2022-12-06T15:06:34.700Z,8.50
2022-12-06T15:09:01.777Z,8.50
2022-12-06T15:11:58.581Z,8.50
2022-12-06T15:14:28.095Z,8.60
2022-12-06T15:17:11.245Z,8.50
2022-12-06T15:19:40.399Z,8.50
2022-12-06T15:22:24.951Z,8.50
2022-12-06T15:24:54.797Z,8.50
2022-12-06T15:27:23.414Z,8.50
2022-12-06T15:29:50.895Z,8.50
2022-12-06T15:32:19.939Z,8.40
2022-12-06T15:34:46.938Z,8.50
2022-12-06T15:37:38.603Z,8.50
2022-12-06T15:40:03.309Z,8.50
2022-12-06T15:42:33.305Z,8.50
2022-12-06T15:45:01.150Z,8.50
2022-12-06T15:47:28.107Z,8.50
2022-12-06T15:50:00.413Z,8.50
2022-12-06T15:52:28.063Z,8.50
2022-12-06T15:54:54.857Z,8.50
2022-12-06T15:57:21.612Z,8.50
2022-12-06T15:59:48.338Z,8.50
2022-12-06T16:02:17.399Z,8.50
2022-12-06T16:04:45.792Z,8.50
2022-12-06T16:07:18.835Z,8.50
2022-12-06T16:09:46.813Z,8.60
2022-12-06T16:12:13.571Z,8.60
2022-12-06T16:14:40.368Z,8.70
2022-12-06T16:17:07.392Z,8.70
2022-12-06T16:19:52.774Z,8.70
2022-12-06T16:22:39.503Z,8.70
2022-12-06T16:25:08.092Z,8.80
2022-12-06T16:27:34.856Z,8.80
2022-12-06T16:30:01.915Z,8.80
2022-12-06T16:32:28.772Z,8.80
2022-12-06T16:34:56.784Z,8.80
2022-12-06T16:37:23.493Z,8.70
2022-12-06T16:39:50.184Z,8.80
2022-12-06T16:42:17.004Z,8.80
2022-12-06T16:44:53.654Z,8.80
2022-12-06T16:49:47.930Z,8.80
2022-12-06T16:52:16.588Z,8.80
2022-12-06T16:54:43.836Z,8.80
2022-12-06T16:57:14.279Z,8.80
2022-12-06T16:59:43.091Z,8.80
2022-12-06T17:02:31.611Z,8.80
2022-12-06T17:05:01.673Z,8.80
2022-12-06T17:07:28.982Z,8.80
2022-12-06T17:09:56.031Z,8.80
2022-12-06T17:12:22.907Z,8.80
2022-12-06T17:14:50.207Z,8.80
2022-12-06T17:17:20.254Z,8.80
2022-12-06T17:19:47.283Z,8.80
2022-12-06T17:22:19.326Z,8.90
2022-12-06T17:24:46.156Z,9.20
2022-12-06T17:27:14.874Z,9.50
2022-12-06T17:32:10.772Z,10.00
2022-12-06T17:34:38.027Z,10.20
2022-12-06T17:37:06.137Z,10.40
2022-12-06T17:39:33.133Z,10.60
2022-12-06T17:42:18.544Z,10.70
2022-12-06T17:44:45.274Z,10.80
2022-12-06T17:47:19.014Z,10.90
2022-12-06T17:49:45.760Z,11.00
2022-12-06T17:52:13.099Z,11.10
2022-12-06T17:54:39.871Z,11.20
2022-12-06T17:57:06.855Z,11.20
2022-12-06T17:59:33.979Z,11.40
2022-12-06T18:02:17.870Z,11.50
2022-12-06T18:04:46.591Z,11.50
2022-12-06T18:07:14.210Z,11.60
2022-12-06T18:09:41.201Z,11.70
2022-12-06T18:12:13.653Z,11.80
2022-12-06T18:14:40.411Z,11.80
2022-12-06T18:17:07.416Z,11.80
2022-12-06T18:19:34.925Z,11.90
2022-12-06T18:22:02.022Z,11.90
2022-12-06T18:24:33.601Z,12.00
2022-12-06T18:27:03.529Z,12.00
2022-12-06T18:29:30.235Z,12.10
2022-12-06T18:31:57.434Z,12.10
2022-12-06T18:34:24.804Z,12.10
2022-12-06T18:36:51.946Z,12.20
2022-12-06T18:39:26.710Z,12.20
2022-12-06T18:41:54.371Z,12.30
2022-12-06T18:44:21.888Z,12.30
2022-12-06T18:46:48.700Z,12.30
2022-12-06T18:49:15.643Z,12.30
2022-12-06T18:51:42.558Z,12.30
2022-12-06T18:54:10.960Z,12.30
2022-12-06T18:56:38.933Z,12.30
2022-12-06T18:59:07.607Z,12.40
2022-12-06T19:01:38.853Z,12.40
2022-12-06T19:04:07.813Z,12.40
2022-12-06T19:06:37.057Z,12.50
2022-12-06T19:09:13.991Z,12.50
2022-12-06T19:11:42.951Z,12.50
2022-12-06T19:14:10.395Z,12.50
2022-12-06T19:16:55.738Z,12.50
2022-12-06T19:19:25.808Z,12.50
2022-12-06T19:21:53.853Z,12.50
2022-12-06T19:24:25.524Z,12.60
2022-12-06T19:26:53.696Z,12.60
2022-12-06T19:29:20.806Z,12.60
2022-12-06T19:31:48.413Z,12.60
2022-12-06T19:34:21.212Z,12.60
2022-12-06T19:36:54.960Z,12.70
2022-12-06T19:39:25.195Z,12.70
2022-12-06T19:42:16.572Z,12.70
2022-12-06T19:44:43.358Z,12.70
2022-12-06T19:47:10.399Z,12.70
2022-12-06T19:49:37.270Z,12.80
2022-12-06T19:52:05.168Z,12.80
2022-12-06T19:54:33.668Z,12.80
2022-12-06T19:57:01.482Z,12.80
2022-12-06T19:59:31.315Z,12.70
2022-12-06T20:01:59.205Z,12.80
2022-12-06T20:04:35.588Z,12.80
2022-12-06T20:07:05.109Z,12.80
2022-12-06T20:09:32.894Z,12.80
2022-12-06T20:12:01.922Z,12.80
2022-12-06T20:14:35.275Z,12.90
2022-12-06T20:17:03.798Z,12.80
2022-12-06T20:19:30.591Z,12.90
2022-12-06T20:21:57.405Z,12.90
2022-12-06T20:24:24.686Z,12.90
2022-12-06T20:26:53.646Z,12.90
2022-12-06T20:29:22.389Z,13.00
2022-12-06T20:31:51.783Z,13.00
2022-12-06T20:34:19.376Z,12.90
2022-12-06T20:36:48.590Z,13.00
2022-12-06T20:39:21.662Z,13.00
2022-12-06T20:41:49.294Z,13.00
2022-12-06T20:44:16.604Z,13.10
2022-12-06T20:46:43.558Z,13.00
2022-12-06T20:49:10.461Z,13.00
2022-12-06T20:51:38.304Z,13.00
2022-12-06T20:54:06.860Z,13.00
2022-12-06T20:56:36.504Z,13.00
2022-12-06T20:59:07.061Z,13.00
2022-12-06T21:01:39.732Z,13.00
2022-12-06T21:04:07.256Z,13.00
2022-12-06T21:06:34.121Z,13.00
2022-12-06T21:09:01.134Z,13.00
2022-12-06T21:11:27.909Z,13.00
2022-12-06T21:13:56.803Z,12.90
2022-12-06T21:16:26.790Z,12.90
2022-12-06T21:19:02.029Z,12.90
2022-12-06T21:21:32.607Z,12.90
2022-12-06T21:24:00.656Z,12.80
2022-12-06T21:26:28.525Z,12.80
2022-12-06T21:28:55.272Z,12.70
2022-12-06T21:31:30.537Z,12.70
2022-12-06T21:33:57.600Z,12.80
2022-12-06T21:36:24.889Z,12.80
2022-12-06T21:38:51.900Z,12.80
2022-12-06T21:41:20.806Z,12.80
2022-12-06T21:43:47.781Z,12.80
2022-12-06T21:46:19.051Z,12.80
2022-12-06T21:48:51.282Z,12.80
2022-12-06T21:51:18.585Z,12.80
2022-12-06T21:53:45.671Z,12.80
2022-12-06T21:56:16.773Z,12.70
2022-12-06T21:58:43.899Z,12.50
2022-12-06T22:01:13.490Z,12.40
2022-12-06T22:03:40.613Z,12.20
2022-12-06T22:06:12.725Z,12.10
2022-12-06T22:08:41.661Z,11.90
2022-12-06T22:11:10.694Z,11.80
2022-12-06T22:13:37.779Z,11.70
2022-12-06T22:16:06.530Z,11.60
2022-12-06T22:18:34.516Z,11.50
2022-12-06T22:21:04.807Z,11.40
2022-12-06T22:23:32.741Z,11.50
2022-12-06T22:26:00.516Z,11.40
2022-12-06T22:28:27.299Z,11.40
2022-12-06T22:30:55.546Z,11.30
2022-12-06T22:33:22.404Z,11.30
2022-12-06T22:35:49.107Z,11.20
2022-12-06T22:38:15.939Z,11.10
2022-12-06T22:40:43.804Z,11.00
2022-12-06T22:43:10.521Z,11.00
2022-12-06T22:45:37.292Z,10.90
2022-12-06T22:48:04.185Z,10.90
2022-12-06T22:50:30.865Z,10.80
2022-12-06T22:52:58.914Z,10.70
2022-12-06T22:55:25.648Z,10.70
2022-12-06T22:57:53.704Z,10.60
2022-12-06T23:00:20.875Z,10.50
2022-12-06T23:02:47.585Z,10.40
2022-12-06T23:05:14.496Z,10.40
2022-12-06T23:07:41.770Z,10.40
2022-12-06T23:10:09.125Z,10.40
2022-12-06T23:12:40.781Z,10.30
2022-12-06T23:15:10.280Z,10.30
2022-12-06T23:17:39.147Z,10.30
2022-12-06T23:20:07.551Z,10.30
2022-12-06T23:22:34.408Z,10.20
2022-12-06T23:25:01.364Z,10.20
2022-12-06T23:27:28.097Z,10.20
2022-12-06T23:29:55.585Z,10.20
2022-12-06T23:32:23.501Z,10.20
2022-12-06T23:34:50.219Z,10.10
2022-12-06T23:37:16.938Z,10.10
2022-12-06T23:39:43.825Z,10.10
2022-12-06T23:42:11.609Z,10.10
2022-12-06T23:44:40.228Z,10.10
2022-12-06T23:47:07.075Z,10.00
2022-12-06T23:49:33.952Z,10.00
2022-12-06T23:52:00.968Z,10.00
2022-12-06T23:54:27.719Z,9.90
2022-12-06T23:56:55.768Z,10.00
2022-12-06T23:59:26.224Z,9.90
